Terminal Aerodrome Forecast
Issued by NWS

Home | Current Version | Previous Version | Text Only | Print | Product List | Glossary On
Versions: 1 2 3 4 5 6 7 8 9 10 11 12
000
FTUS44 KOUN 230520
TAFCSM
TAF
KCSM 230520Z 2306/2406 19008KT P6SM FEW100 SCT250
     FM231000 02006KT P6SM FEW100 SCT250
     FM232200 06007KT P6SM VCTS BKN080CB
     FM240100 12006KT P6SM FEW100 BKN200=

USA.gov is the U.S. government's official web portal to all federal, state and local government web resources and services.